Aviation Digital Data Service (ADDS)

Output produced by METARs form (0905 UTC 18 February 2019)
found at http://www.aviationweather.gov/metar/data/
 
METAR text: LESA 180900Z 00000KT CAVOK 04/02 Q1017
Conditions at: LESA (SALAMANCA (CIV/M, ES) observed 0900 UTC 18 February 2019
Temperature: 4.0°C (39°F)
Dewpoint: 2.0°C (36°F) [RH = 87%]
Pressure (altimeter): 30.03 inches Hg (1017.0 mb)
Winds: calm
Visibility: 6 or more miles (10+ km)
Ceiling: ceiling and visibility are OK
Clouds: unknown
Weather: no significant weather observed at this time

METAR text: LESA 180830Z VRB01KT CAVOK 03/02 Q1017
Conditions at: LESA (SALAMANCA (CIV/M, ES) observed 0830 UTC 18 February 2019
Temperature: 3.0°C (37°F)
Dewpoint: 2.0°C (36°F) [RH = 93%]
Pressure (altimeter): 30.03 inches Hg (1017.0 mb)
Winds: variable direction winds at 1 MPH (1 knots; 0.5 m/s)
Visibility: 6 or more miles (10+ km)
Ceiling: ceiling and visibility are OK
Clouds: unknown
Weather: no significant weather observed at this time

METAR text: LESA 180800Z 00000KT CAVOK 02/00 Q1016
Conditions at: LESA (SALAMANCA (CIV/M, ES) observed 0800 UTC 18 February 2019
Temperature: 2.0°C (36°F)
Dewpoint: 0.0°C (32°F) [RH = 87%]
Pressure (altimeter): 30.00 inches Hg (1016.0 mb)
Winds: calm
Visibility: 6 or more miles (10+ km)
Ceiling: ceiling and visibility are OK
Clouds: unknown
Weather: no significant weather observed at this time

METAR text: LESA 180730Z 34001KT CAVOK 02/M00 Q1016
Conditions at: LESA (SALAMANCA (CIV/M, ES) observed 0730 UTC 18 February 2019
Temperature: 2.0°C (36°F)
Dewpoint: 0.0°C (32°F) [RH = 87%]
Pressure (altimeter): 30.00 inches Hg (1016.0 mb)
Winds: from the NNW (340 degrees) at 1 MPH (1 knots; 0.5 m/s)
Visibility: 6 or more miles (10+ km)
Ceiling: ceiling and visibility are OK
Clouds: unknown
Weather: no significant weather observed at this time

METAR text: LESA 180700Z 29003KT CAVOK 01/M00 Q1016
Conditions at: LESA (SALAMANCA (CIV/M, ES) observed 0700 UTC 18 February 2019
Temperature: 1.0°C (34°F)
Dewpoint: 0.0°C (32°F) [RH = 93%]
Pressure (altimeter): 30.00 inches Hg (1016.0 mb)
Winds: from the WNW (290 degrees) at 3 MPH (3 knots; 1.5 m/s)
Visibility: 6 or more miles (10+ km)
Ceiling: ceiling and visibility are OK
Clouds: unknown
Weather: no significant weather observed at this time

METAR text: LESA 180630Z 00000KT CAVOK 01/M00 Q1016
Conditions at: LESA (SALAMANCA (CIV/M, ES) observed 0630 UTC 18 February 2019
Temperature: 1.0°C (34°F)
Dewpoint: 0.0°C (32°F) [RH = 93%]
Pressure (altimeter): 30.00 inches Hg (1016.0 mb)
Winds: calm
Visibility: 6 or more miles (10+ km)
Ceiling: ceiling and visibility are OK
Clouds: unknown
Weather: no significant weather observed at this time

METAR text: LESA 180600Z 08002KT CAVOK 01/M00 Q1016
Conditions at: LESA (SALAMANCA (CIV/M, ES) observed 0600 UTC 18 February 2019
Temperature: 1.0°C (34°F)
Dewpoint: 0.0°C (32°F) [RH = 93%]
Pressure (altimeter): 30.00 inches Hg (1016.0 mb)
Winds: from the E (80 degrees) at 2 MPH (2 knots; 1.0 m/s)
Visibility: 6 or more miles (10+ km)
Ceiling: ceiling and visibility are OK
Clouds: unknown
Weather: no significant weather observed at this time

METAR text: LESA 180530Z AUTO 00000KT 7000 NSC 01/M01 Q1016
Conditions at: LESA (SALAMANCA (CIV/M, ES) observed 0530 UTC 18 February 2019
Temperature: 1.0°C (34°F)
Dewpoint: -1.0°C (30°F) [RH = 86%]
Pressure (altimeter): 30.00 inches Hg (1016.0 mb)
Winds: calm
Visibility: 4 miles ( 7 km)
Ceiling: at least 12,000 feet AGL
Clouds: sky clear below 12,000 feet AGL
Weather: no significant weather observed at this time

METAR text: LESA 180500Z AUTO 00000KT 8000 NSC 01/M01 Q1016
Conditions at: LESA (SALAMANCA (CIV/M, ES) observed 0500 UTC 18 February 2019
Temperature: 1.0°C (34°F)
Dewpoint: -1.0°C (30°F) [RH = 86%]
Pressure (altimeter): 30.00 inches Hg (1016.0 mb)
Winds: calm
Visibility: 5 miles ( 8 km)
Ceiling: at least 12,000 feet AGL
Clouds: sky clear below 12,000 feet AGL
Weather: no significant weather observed at this time

METAR text: LESA 180430Z AUTO VRB02KT 7000 NSC 00/M01 Q1016
Conditions at: LESA (SALAMANCA (CIV/M, ES) observed 0430 UTC 18 February 2019
Temperature: 0.0°C (32°F)
Dewpoint: -1.0°C (30°F) [RH = 93%]
Pressure (altimeter): 30.00 inches Hg (1016.0 mb)
Winds: variable direction winds at 2 MPH (2 knots; 1.0 m/s)
Visibility: 4 miles ( 7 km)
Ceiling: at least 12,000 feet AGL
Clouds: sky clear below 12,000 feet AGL
Weather: no significant weather observed at this time

METAR text: LESA 180400Z AUTO 00000KT 8000 NSC 01/M01 Q1016
Conditions at: LESA (SALAMANCA (CIV/M, ES) observed 0400 UTC 18 February 2019
Temperature: 1.0°C (34°F)
Dewpoint: -1.0°C (30°F) [RH = 86%]
Pressure (altimeter): 30.00 inches Hg (1016.0 mb)
Winds: calm
Visibility: 5 miles ( 8 km)
Ceiling: at least 12,000 feet AGL
Clouds: sky clear below 12,000 feet AGL
Weather: no significant weather observed at this time

METAR text: LESA 180330Z AUTO 00000KT 8000 NCD 01/M01 Q1016
Conditions at: LESA (SALAMANCA (CIV/M, ES) observed 0330 UTC 18 February 2019
Temperature: 1.0°C (34°F)
Dewpoint: -1.0°C (30°F) [RH = 86%]
Pressure (altimeter): 30.00 inches Hg (1016.0 mb)
Winds: calm
Visibility: 5 miles ( 8 km)
Ceiling: at least 12,000 feet AGL
Clouds: sky clear below 12,000 feet AGL
Weather: no significant weather observed at this time

METAR text: LESA 180300Z AUTO 00000KT 8000 NCD 01/M01 Q1017
Conditions at: LESA (SALAMANCA (CIV/M, ES) observed 0300 UTC 18 February 2019
Temperature: 1.0°C (34°F)
Dewpoint: -1.0°C (30°F) [RH = 86%]
Pressure (altimeter): 30.03 inches Hg (1017.0 mb)
Winds: calm
Visibility: 5 miles ( 8 km)
Ceiling: at least 12,000 feet AGL
Clouds: sky clear below 12,000 feet AGL
Weather: no significant weather observed at this time

METAR text: LESA 180230Z AUTO 00000KT 8000 NSC 01/M01 Q1017
Conditions at: LESA (SALAMANCA (CIV/M, ES) observed 0230 UTC 18 February 2019
Temperature: 1.0°C (34°F)
Dewpoint: -1.0°C (30°F) [RH = 86%]
Pressure (altimeter): 30.03 inches Hg (1017.0 mb)
Winds: calm
Visibility: 5 miles ( 8 km)
Ceiling: at least 12,000 feet AGL
Clouds: sky clear below 12,000 feet AGL
Weather: no significant weather observed at this time

METAR text: LESA 180200Z AUTO 00000KT 8000 NCD 01/M01 Q1017
Conditions at: LESA (SALAMANCA (CIV/M, ES) observed 0200 UTC 18 February 2019
Temperature: 1.0°C (34°F)
Dewpoint: -1.0°C (30°F) [RH = 86%]
Pressure (altimeter): 30.03 inches Hg (1017.0 mb)
Winds: calm
Visibility: 5 miles ( 8 km)
Ceiling: at least 12,000 feet AGL
Clouds: sky clear below 12,000 feet AGL
Weather: no significant weather observed at this time

METAR text: LESA 180130Z AUTO 15002KT 7000 NCD 01/M01 Q1017
Conditions at: LESA (SALAMANCA (CIV/M, ES) observed 0130 UTC 18 February 2019
Temperature: 1.0°C (34°F)
Dewpoint: -1.0°C (30°F) [RH = 86%]
Pressure (altimeter): 30.03 inches Hg (1017.0 mb)
Winds: from the SSE (150 degrees) at 2 MPH (2 knots; 1.0 m/s)
Visibility: 4 miles ( 7 km)
Ceiling: at least 12,000 feet AGL
Clouds: sky clear below 12,000 feet AGL
Weather: no significant weather observed at this time

METAR text: LESA 180100Z AUTO 12003KT 8000 NCD 00/M01 Q1017
Conditions at: LESA (SALAMANCA (CIV/M, ES) observed 0100 UTC 18 February 2019
Temperature: 0.0°C (32°F)
Dewpoint: -1.0°C (30°F) [RH = 93%]
Pressure (altimeter): 30.03 inches Hg (1017.0 mb)
Winds: from the ESE (120 degrees) at 3 MPH (3 knots; 1.5 m/s)
Visibility: 5 miles ( 8 km)
Ceiling: at least 12,000 feet AGL
Clouds: sky clear below 12,000 feet AGL
Weather: no significant weather observed at this time

METAR text: LESA 180030Z AUTO 00000KT 8000 NCD 01/M01 Q1018
Conditions at: LESA (SALAMANCA (CIV/M, ES) observed 0030 UTC 18 February 2019
Temperature: 1.0°C (34°F)
Dewpoint: -1.0°C (30°F) [RH = 86%]
Pressure (altimeter): 30.06 inches Hg (1018.0 mb)
Winds: calm
Visibility: 5 miles ( 8 km)
Ceiling: at least 12,000 feet AGL
Clouds: sky clear below 12,000 feet AGL
Weather: no significant weather observed at this time

METAR text: LESA 180000Z AUTO VRB01KT 8000 NCD 01/M01 Q1018
Conditions at: LESA (SALAMANCA (CIV/M, ES) observed 0000 UTC 18 February 2019
Temperature: 1.0°C (34°F)
Dewpoint: -1.0°C (30°F) [RH = 86%]
Pressure (altimeter): 30.06 inches Hg (1018.0 mb)
Winds: variable direction winds at 1 MPH (1 knots; 0.5 m/s)
Visibility: 5 miles ( 8 km)
Ceiling: at least 12,000 feet AGL
Clouds: sky clear below 12,000 feet AGL
Weather: no significant weather observed at this time

METAR text: LESA 172330Z AUTO 00000KT 9000 NSC 02/M01 Q1018
Conditions at: LESA (SALAMANCA (CIV/M, ES) observed 2330 UTC 17 February 2019
Temperature: 2.0°C (36°F)
Dewpoint: -1.0°C (30°F) [RH = 80%]
Pressure (altimeter): 30.06 inches Hg (1018.0 mb)
Winds: calm
Visibility: 6 miles ( 9 km)
Ceiling: at least 12,000 feet AGL
Clouds: sky clear below 12,000 feet AGL
Weather: no significant weather observed at this time

METAR text: LESA 172300Z AUTO 00000KT 8000 NSC 02/M01 Q1018
Conditions at: LESA (SALAMANCA (CIV/M, ES) observed 2300 UTC 17 February 2019
Temperature: 2.0°C (36°F)
Dewpoint: -1.0°C (30°F) [RH = 80%]
Pressure (altimeter): 30.06 inches Hg (1018.0 mb)
Winds: calm
Visibility: 5 miles ( 8 km)
Ceiling: at least 12,000 feet AGL
Clouds: sky clear below 12,000 feet AGL
Weather: no significant weather observed at this time

METAR text: LESA 172230Z AUTO 00000KT 8000 NCD 03/M00 Q1019
Conditions at: LESA (SALAMANCA (CIV/M, ES) observed 2230 UTC 17 February 2019
Temperature: 3.0°C (37°F)
Dewpoint: 0.0°C (32°F) [RH = 81%]
Pressure (altimeter): 30.09 inches Hg (1019.0 mb)
Winds: calm
Visibility: 5 miles ( 8 km)
Ceiling: at least 12,000 feet AGL
Clouds: sky clear below 12,000 feet AGL
Weather: no significant weather observed at this time

METAR text: LESA 172200Z AUTO 11004KT 9000 NCD 02/M01 Q1019
Conditions at: LESA (SALAMANCA (CIV/M, ES) observed 2200 UTC 17 February 2019
Temperature: 2.0°C (36°F)
Dewpoint: -1.0°C (30°F) [RH = 80%]
Pressure (altimeter): 30.09 inches Hg (1019.0 mb)
Winds: from the ESE (110 degrees) at 5 MPH (4 knots; 2.1 m/s)
Visibility: 6 miles ( 9 km)
Ceiling: at least 12,000 feet AGL
Clouds: sky clear below 12,000 feet AGL
Weather: no significant weather observed at this time

METAR text: LESA 172130Z AUTO 15003KT 8000 NCD 03/M01 Q1019
Conditions at: LESA (SALAMANCA (CIV/M, ES) observed 2130 UTC 17 February 2019
Temperature: 3.0°C (37°F)
Dewpoint: -1.0°C (30°F) [RH = 75%]
Pressure (altimeter): 30.09 inches Hg (1019.0 mb)
Winds: from the SSE (150 degrees) at 3 MPH (3 knots; 1.5 m/s)
Visibility: 5 miles ( 8 km)
Ceiling: at least 12,000 feet AGL
Clouds: sky clear below 12,000 feet AGL
Weather: no significant weather observed at this time

METAR text: LESA 172100Z AUTO 15005KT 8000 NCD 04/M00 Q1019
Conditions at: LESA (SALAMANCA (CIV/M, ES) observed 2100 UTC 17 February 2019
Temperature: 4.0°C (39°F)
Dewpoint: 0.0°C (32°F) [RH = 75%]
Pressure (altimeter): 30.09 inches Hg (1019.0 mb)
Winds: from the SSE (150 degrees) at 6 MPH (5 knots; 2.6 m/s)
Visibility: 5 miles ( 8 km)
Ceiling: at least 12,000 feet AGL
Clouds: sky clear below 12,000 feet AGL
Weather: no significant weather observed at this time

METAR text: LESA 172030Z AUTO 15004KT 9000 NCD 06/M00 Q1019
Conditions at: LESA (SALAMANCA (CIV/M, ES) observed 2030 UTC 17 February 2019
Temperature: 6.0°C (43°F)
Dewpoint: 0.0°C (32°F) [RH = 65%]
Pressure (altimeter): 30.09 inches Hg (1019.0 mb)
Winds: from the SSE (150 degrees) at 5 MPH (4 knots; 2.1 m/s)
Visibility: 6 miles ( 9 km)
Ceiling: at least 12,000 feet AGL
Clouds: sky clear below 12,000 feet AGL
Weather: no significant weather observed at this time

METAR text: LESA 172000Z AUTO 17002KT 9000 NCD 07/M00 Q1019
Conditions at: LESA (SALAMANCA (CIV/M, ES) observed 2000 UTC 17 February 2019
Temperature: 7.0°C (45°F)
Dewpoint: 0.0°C (32°F) [RH = 61%]
Pressure (altimeter): 30.09 inches Hg (1019.0 mb)
Winds: from the S (170 degrees) at 2 MPH (2 knots; 1.0 m/s)
Visibility: 6 miles ( 9 km)
Ceiling: at least 12,000 feet AGL
Clouds: sky clear below 12,000 feet AGL
Weather: no significant weather observed at this time

METAR text: LESA 171930Z AUTO 00000KT 9000 NCD 08/M00 Q1019
Conditions at: LESA (SALAMANCA (CIV/M, ES) observed 1930 UTC 17 February 2019
Temperature: 8.0°C (46°F)
Dewpoint: 0.0°C (32°F) [RH = 57%]
Pressure (altimeter): 30.09 inches Hg (1019.0 mb)
Winds: calm
Visibility: 6 miles ( 9 km)
Ceiling: at least 12,000 feet AGL
Clouds: sky clear below 12,000 feet AGL
Weather: no significant weather observed at this time

METAR text: LESA 171900Z AUTO 24005KT 9000 NCD 08/M00 Q1019
Conditions at: LESA (SALAMANCA (CIV/M, ES) observed 1900 UTC 17 February 2019
Temperature: 8.0°C (46°F)
Dewpoint: 0.0°C (32°F) [RH = 57%]
Pressure (altimeter): 30.09 inches Hg (1019.0 mb)
Winds: from the WSW (240 degrees) at 6 MPH (5 knots; 2.6 m/s)
Visibility: 6 miles ( 9 km)
Ceiling: at least 12,000 feet AGL
Clouds: sky clear below 12,000 feet AGL
Weather: no significant weather observed at this time

METAR text: LESA 171830Z AUTO 25007KT 9000 NCD 08/M00 Q1018
Conditions at: LESA (SALAMANCA (CIV/M, ES) observed 1830 UTC 17 February 2019
Temperature: 8.0°C (46°F)
Dewpoint: 0.0°C (32°F) [RH = 57%]
Pressure (altimeter): 30.06 inches Hg (1018.0 mb)
Winds: from the WSW (250 degrees) at 8 MPH (7 knots; 3.6 m/s)
Visibility: 6 miles ( 9 km)
Ceiling: at least 12,000 feet AGL
Clouds: sky clear below 12,000 feet AGL
Weather: no significant weather observed at this time

METAR text: LESA 171800Z 25008KT CAVOK 10/M00 Q1018
Conditions at: LESA (SALAMANCA (CIV/M, ES) observed 1800 UTC 17 February 2019
Temperature: 10.0°C (50°F)
Dewpoint: 0.0°C (32°F) [RH = 50%]
Pressure (altimeter): 30.06 inches Hg (1018.0 mb)
Winds: from the WSW (250 degrees) at 9 MPH (8 knots; 4.1 m/s)
Visibility: 6 or more miles (10+ km)
Ceiling: ceiling and visibility are OK
Clouds: unknown
Weather: no significant weather observed at this time

METAR text: LESA 171730Z 26006KT CAVOK 11/00 Q1018
Conditions at: LESA (SALAMANCA (CIV/M, ES) observed 1730 UTC 17 February 2019
Temperature: 11.0°C (52°F)
Dewpoint: 0.0°C (32°F) [RH = 47%]
Pressure (altimeter): 30.06 inches Hg (1018.0 mb)
Winds: from the W (260 degrees) at 7 MPH (6 knots; 3.1 m/s)
Visibility: 6 or more miles (10+ km)
Ceiling: ceiling and visibility are OK
Clouds: unknown
Weather: no significant weather observed at this time

METAR text: LESA 171700Z 26012KT CAVOK 13/M01 Q1018
Conditions at: LESA (SALAMANCA (CIV/M, ES) observed 1700 UTC 17 February 2019
Temperature: 13.0°C (55°F)
Dewpoint: -1.0°C (30°F) [RH = 38%]
Pressure (altimeter): 30.06 inches Hg (1018.0 mb)
Winds: from the W (260 degrees) at 14 MPH (12 knots; 6.2 m/s)
Visibility: 6 or more miles (10+ km)
Ceiling: ceiling and visibility are OK
Clouds: unknown
Weather: no significant weather observed at this time

METAR text: LESA 171630Z 30004KT CAVOK 14/01 Q1017
Conditions at: LESA (SALAMANCA (CIV/M, ES) observed 1630 UTC 17 February 2019
Temperature: 14.0°C (57°F)
Dewpoint: 1.0°C (34°F) [RH = 41%]
Pressure (altimeter): 30.03 inches Hg (1017.0 mb)
Winds: from the WNW (300 degrees) at 5 MPH (4 knots; 2.1 m/s)
Visibility: 6 or more miles (10+ km)
Ceiling: ceiling and visibility are OK
Clouds: unknown
Weather: no significant weather observed at this time

METAR text: LESA 171600Z VRB02KT CAVOK 15/M00 Q1017
Conditions at: LESA (SALAMANCA (CIV/M, ES) observed 1600 UTC 17 February 2019
Temperature: 15.0°C (59°F)
Dewpoint: 0.0°C (32°F) [RH = 36%]
Pressure (altimeter): 30.03 inches Hg (1017.0 mb)
Winds: variable direction winds at 2 MPH (2 knots; 1.0 m/s)
Visibility: 6 or more miles (10+ km)
Ceiling: ceiling and visibility are OK
Clouds: unknown
Weather: no significant weather observed at this time

METAR text: LESA 171530Z 29004KT 230V330 9999 FEW040 15/00 Q1018
Conditions at: LESA (SALAMANCA (CIV/M, ES) observed 1530 UTC 17 February 2019
Temperature: 15.0°C (59°F)
Dewpoint: 0.0°C (32°F) [RH = 36%]
Pressure (altimeter): 30.06 inches Hg (1018.0 mb)
Winds: from the WNW (290 degrees) at 5 MPH (4 knots; 2.1 m/s)
Visibility: 6 or more miles (10+ km)
Ceiling: at least 12,000 feet AGL
Clouds: few clouds at 4000 feet AGL
Weather: no significant weather observed at this time

METAR text: LESA 171500Z 26005KT 200V290 9999 FEW040 16/00 Q1018
Conditions at: LESA (SALAMANCA (CIV/M, ES) observed 1500 UTC 17 February 2019
Temperature: 16.0°C (61°F)
Dewpoint: 0.0°C (32°F) [RH = 34%]
Pressure (altimeter): 30.06 inches Hg (1018.0 mb)
Winds: from the W (260 degrees) at 6 MPH (5 knots; 2.6 m/s)
Visibility: 6 or more miles (10+ km)
Ceiling: at least 12,000 feet AGL
Clouds: few clouds at 4000 feet AGL
Weather: no significant weather observed at this time

METAR text: LESA 171430Z 28008KT 250V320 9999 FEW040 16/M01 Q1018
Conditions at: LESA (SALAMANCA (CIV/M, ES) observed 1430 UTC 17 February 2019
Temperature: 16.0°C (61°F)
Dewpoint: -1.0°C (30°F) [RH = 31%]
Pressure (altimeter): 30.06 inches Hg (1018.0 mb)
Winds: from the W (280 degrees) at 9 MPH (8 knots; 4.1 m/s)
Visibility: 6 or more miles (10+ km)
Ceiling: at least 12,000 feet AGL
Clouds: few clouds at 4000 feet AGL
Weather: no significant weather observed at this time

METAR text: LESA 171400Z VRB02KT 9999 FEW040 15/M02 Q1019
Conditions at: LESA (SALAMANCA (CIV/M, ES) observed 1400 UTC 17 February 2019
Temperature: 15.0°C (59°F)
Dewpoint: -2.0°C (28°F) [RH = 31%]
Pressure (altimeter): 30.09 inches Hg (1019.0 mb)
Winds: variable direction winds at 2 MPH (2 knots; 1.0 m/s)
Visibility: 6 or more miles (10+ km)
Ceiling: at least 12,000 feet AGL
Clouds: few clouds at 4000 feet AGL
Weather: no significant weather observed at this time

METAR text: LESA 171330Z VRB02KT 9999 FEW040 15/M02 Q1019
Conditions at: LESA (SALAMANCA (CIV/M, ES) observed 1330 UTC 17 February 2019
Temperature: 15.0°C (59°F)
Dewpoint: -2.0°C (28°F) [RH = 31%]
Pressure (altimeter): 30.09 inches Hg (1019.0 mb)
Winds: variable direction winds at 2 MPH (2 knots; 1.0 m/s)
Visibility: 6 or more miles (10+ km)
Ceiling: at least 12,000 feet AGL
Clouds: few clouds at 4000 feet AGL
Weather: no significant weather observed at this time

METAR text: LESA 171300Z VRB02KT 9999 FEW040 15/M02 Q1020
Conditions at: LESA (SALAMANCA (CIV/M, ES) observed 1300 UTC 17 February 2019
Temperature: 15.0°C (59°F)
Dewpoint: -2.0°C (28°F) [RH = 31%]
Pressure (altimeter): 30.12 inches Hg (1020.0 mb)
Winds: variable direction winds at 2 MPH (2 knots; 1.0 m/s)
Visibility: 6 or more miles (10+ km)
Ceiling: at least 12,000 feet AGL
Clouds: few clouds at 4000 feet AGL
Weather: no significant weather observed at this time

METAR text: LESA 171230Z VRB01KT CAVOK 15/M01 Q1020
Conditions at: LESA (SALAMANCA (CIV/M, ES) observed 1230 UTC 17 February 2019
Temperature: 15.0°C (59°F)
Dewpoint: -1.0°C (30°F) [RH = 33%]
Pressure (altimeter): 30.12 inches Hg (1020.0 mb)
Winds: variable direction winds at 1 MPH (1 knots; 0.5 m/s)
Visibility: 6 or more miles (10+ km)
Ceiling: ceiling and visibility are OK
Clouds: unknown
Weather: no significant weather observed at this time

METAR text: LESA 171200Z 33003KT 290V040 CAVOK 14/00 Q1021
Conditions at: LESA (SALAMANCA (CIV/M, ES) observed 1200 UTC 17 February 2019
Temperature: 14.0°C (57°F)
Dewpoint: 0.0°C (32°F) [RH = 38%]
Pressure (altimeter): 30.15 inches Hg (1021.0 mb)
Winds: from the NNW (330 degrees) at 3 MPH (3 knots; 1.5 m/s)
Visibility: 6 or more miles (10+ km)
Ceiling: ceiling and visibility are OK
Clouds: unknown
Weather: no significant weather observed at this time

METAR text: LESA 171130Z 00000KT CAVOK 12/01 Q1021
Conditions at: LESA (SALAMANCA (CIV/M, ES) observed 1130 UTC 17 February 2019
Temperature: 12.0°C (54°F)
Dewpoint: 1.0°C (34°F) [RH = 47%]
Pressure (altimeter): 30.15 inches Hg (1021.0 mb)
Winds: calm
Visibility: 6 or more miles (10+ km)
Ceiling: ceiling and visibility are OK
Clouds: unknown
Weather: no significant weather observed at this time

METAR text: LESA 171100Z VRB01KT CAVOK 10/02 Q1021
Conditions at: LESA (SALAMANCA (CIV/M, ES) observed 1100 UTC 17 February 2019
Temperature: 10.0°C (50°F)
Dewpoint: 2.0°C (36°F) [RH = 57%]
Pressure (altimeter): 30.15 inches Hg (1021.0 mb)
Winds: variable direction winds at 1 MPH (1 knots; 0.5 m/s)
Visibility: 6 or more miles (10+ km)
Ceiling: ceiling and visibility are OK
Clouds: unknown
Weather: no significant weather observed at this time

METAR text: LESA 171030Z VRB02KT CAVOK 08/01 Q1021
Conditions at: LESA (SALAMANCA (CIV/M, ES) observed 1030 UTC 17 February 2019
Temperature: 8.0°C (46°F)
Dewpoint: 1.0°C (34°F) [RH = 61%]
Pressure (altimeter): 30.15 inches Hg (1021.0 mb)
Winds: variable direction winds at 2 MPH (2 knots; 1.0 m/s)
Visibility: 6 or more miles (10+ km)
Ceiling: ceiling and visibility are OK
Clouds: unknown
Weather: no significant weather observed at this time

METAR text: LESA 171000Z VRB01KT CAVOK 06/00 Q1021
Conditions at: LESA (SALAMANCA (CIV/M, ES) observed 1000 UTC 17 February 2019
Temperature: 6.0°C (43°F)
Dewpoint: 0.0°C (32°F) [RH = 65%]
Pressure (altimeter): 30.15 inches Hg (1021.0 mb)
Winds: variable direction winds at 1 MPH (1 knots; 0.5 m/s)
Visibility: 6 or more miles (10+ km)
Ceiling: ceiling and visibility are OK
Clouds: unknown
Weather: no significant weather observed at this time

METAR text: LESA 170930Z 00000KT CAVOK 04/M01 Q1022
Conditions at: LESA (SALAMANCA (CIV/M, ES) observed 0930 UTC 17 February 2019
Temperature: 4.0°C (39°F)
Dewpoint: -1.0°C (30°F) [RH = 70%]
Pressure (altimeter): 30.18 inches Hg (1022.0 mb)
Winds: calm
Visibility: 6 or more miles (10+ km)
Ceiling: ceiling and visibility are OK
Clouds: unknown
Weather: no significant weather observed at this time

METAR text: LESA 170900Z 00000KT CAVOK 01/M01 Q1022
Conditions at: LESA (SALAMANCA (CIV/M, ES) observed 0900 UTC 17 February 2019
Temperature: 1.0°C (34°F)
Dewpoint: -1.0°C (30°F) [RH = 86%]
Pressure (altimeter): 30.18 inches Hg (1022.0 mb)
Winds: calm
Visibility: 6 or more miles (10+ km)
Ceiling: ceiling and visibility are OK
Clouds: unknown
Weather: no significant weather observed at this time

METAR text: LESA 170830Z 00000KT CAVOK 00/M02 Q1022
Conditions at: LESA (SALAMANCA (CIV/M, ES) observed 0830 UTC 17 February 2019
Temperature: 0.0°C (32°F)
Dewpoint: -2.0°C (28°F) [RH = 86%]
Pressure (altimeter): 30.18 inches Hg (1022.0 mb)
Winds: calm
Visibility: 6 or more miles (10+ km)
Ceiling: ceiling and visibility are OK
Clouds: unknown
Weather: no significant weather observed at this time

METAR text: LESA 170800Z 11002KT CAVOK M01/M02 Q1022
Conditions at: LESA (SALAMANCA (CIV/M, ES) observed 0800 UTC 17 February 2019
Temperature: -1.0°C (30°F)
Dewpoint: -2.0°C (28°F) [RH = 93%]
Pressure (altimeter): 30.18 inches Hg (1022.0 mb)
Winds: from the ESE (110 degrees) at 2 MPH (2 knots; 1.0 m/s)
Visibility: 6 or more miles (10+ km)
Ceiling: ceiling and visibility are OK
Clouds: unknown
Weather: no significant weather observed at this time

METAR text: LESA 170730Z 00000KT CAVOK M03/M04 Q1022
Conditions at: LESA (SALAMANCA (CIV/M, ES) observed 0730 UTC 17 February 2019
Temperature: -3.0°C (27°F)
Dewpoint: -4.0°C (25°F) [RH = 93%]
Pressure (altimeter): 30.18 inches Hg (1022.0 mb)
Winds: calm
Visibility: 6 or more miles (10+ km)
Ceiling: ceiling and visibility are OK
Clouds: unknown
Weather: no significant weather observed at this time

METAR text: LESA 170700Z 21001KT CAVOK M03/M03 Q1022
Conditions at: LESA (SALAMANCA (CIV/M, ES) observed 0700 UTC 17 February 2019
Temperature: -3.0°C (27°F)
Dewpoint: -3.0°C (27°F) [RH = 100%]
Pressure (altimeter): 30.18 inches Hg (1022.0 mb)
Winds: from the SSW (210 degrees) at 1 MPH (1 knots; 0.5 m/s)
Visibility: 6 or more miles (10+ km)
Ceiling: ceiling and visibility are OK
Clouds: unknown
Weather: no significant weather observed at this time

METAR text: LESA 170630Z 00000KT CAVOK M03/M04 Q1022
Conditions at: LESA (SALAMANCA (CIV/M, ES) observed 0630 UTC 17 February 2019
Temperature: -3.0°C (27°F)
Dewpoint: -4.0°C (25°F) [RH = 93%]
Pressure (altimeter): 30.18 inches Hg (1022.0 mb)
Winds: calm
Visibility: 6 or more miles (10+ km)
Ceiling: ceiling and visibility are OK
Clouds: unknown
Weather: no significant weather observed at this time

METAR text: LESA 170600Z 00000KT CAVOK M03/M04 Q1022
Conditions at: LESA (SALAMANCA (CIV/M, ES) observed 0600 UTC 17 February 2019
Temperature: -3.0°C (27°F)
Dewpoint: -4.0°C (25°F) [RH = 93%]
Pressure (altimeter): 30.18 inches Hg (1022.0 mb)
Winds: calm
Visibility: 6 or more miles (10+ km)
Ceiling: ceiling and visibility are OK
Clouds: unknown
Weather: no significant weather observed at this time

METAR text: LESA 170530Z AUTO 00000KT 6000 NCD M02/M03 Q1022
Conditions at: LESA (SALAMANCA (CIV/M, ES) observed 0530 UTC 17 February 2019
Temperature: -2.0°C (28°F)
Dewpoint: -3.0°C (27°F) [RH = 93%]
Pressure (altimeter): 30.18 inches Hg (1022.0 mb)
Winds: calm
Visibility: 4 miles ( 6 km)
Ceiling: at least 12,000 feet AGL
Clouds: sky clear below 12,000 feet AGL
Weather: no significant weather observed at this time

METAR text: LESA 170500Z AUTO 00000KT 3800 BR NSC M02/M03 Q1022
Conditions at: LESA (SALAMANCA (CIV/M, ES) observed 0500 UTC 17 February 2019
Temperature: -2.0°C (28°F)
Dewpoint: -3.0°C (27°F) [RH = 93%]
Pressure (altimeter): 30.18 inches Hg (1022.0 mb)
Winds: calm
Visibility: 2.36 miles (3.80 km)
Ceiling: at least 12,000 feet AGL
Clouds: sky clear below 12,000 feet AGL
Weather: BR  (mist)

METAR text: LESA 170430Z AUTO 00000KT 6000 NSC M02/M03 Q1022
Conditions at: LESA (SALAMANCA (CIV/M, ES) observed 0430 UTC 17 February 2019
Temperature: -2.0°C (28°F)
Dewpoint: -3.0°C (27°F) [RH = 93%]
Pressure (altimeter): 30.18 inches Hg (1022.0 mb)
Winds: calm
Visibility: 4 miles ( 6 km)
Ceiling: at least 12,000 feet AGL
Clouds: sky clear below 12,000 feet AGL
Weather: no significant weather observed at this time

METAR text: LESA 170400Z AUTO 13001KT 6000 NCD M02/M03 Q1022
Conditions at: LESA (SALAMANCA (CIV/M, ES) observed 0400 UTC 17 February 2019
Temperature: -2.0°C (28°F)
Dewpoint: -3.0°C (27°F) [RH = 93%]
Pressure (altimeter): 30.18 inches Hg (1022.0 mb)
Winds: from the SE (130 degrees) at 1 MPH (1 knots; 0.5 m/s)
Visibility: 4 miles ( 6 km)
Ceiling: at least 12,000 feet AGL
Clouds: sky clear below 12,000 feet AGL
Weather: no significant weather observed at this time

METAR text: LESA 170330Z AUTO 00000KT 7000 NCD M01/M02 Q1022
Conditions at: LESA (SALAMANCA (CIV/M, ES) observed 0330 UTC 17 February 2019
Temperature: -1.0°C (30°F)
Dewpoint: -2.0°C (28°F) [RH = 93%]
Pressure (altimeter): 30.18 inches Hg (1022.0 mb)
Winds: calm
Visibility: 4 miles ( 7 km)
Ceiling: at least 12,000 feet AGL
Clouds: sky clear below 12,000 feet AGL
Weather: no significant weather observed at this time

METAR text: LESA 170300Z AUTO 00000KT 7000 NCD M02/M03 Q1022
Conditions at: LESA (SALAMANCA (CIV/M, ES) observed 0300 UTC 17 February 2019
Temperature: -2.0°C (28°F)
Dewpoint: -3.0°C (27°F) [RH = 93%]
Pressure (altimeter): 30.18 inches Hg (1022.0 mb)
Winds: calm
Visibility: 4 miles ( 7 km)
Ceiling: at least 12,000 feet AGL
Clouds: sky clear below 12,000 feet AGL
Weather: no significant weather observed at this time

METAR text: LESA 170230Z AUTO 00000KT 7000 NCD M01/M03 Q1023
Conditions at: LESA (SALAMANCA (CIV/M, ES) observed 0230 UTC 17 February 2019
Temperature: -1.0°C (30°F)
Dewpoint: -3.0°C (27°F) [RH = 86%]
Pressure (altimeter): 30.21 inches Hg (1023.0 mb)
Winds: calm
Visibility: 4 miles ( 7 km)
Ceiling: at least 12,000 feet AGL
Clouds: sky clear below 12,000 feet AGL
Weather: no significant weather observed at this time

METAR text: LESA 170200Z AUTO 14001KT 6000 NCD M01/M02 Q1023
Conditions at: LESA (SALAMANCA (CIV/M, ES) observed 0200 UTC 17 February 2019
Temperature: -1.0°C (30°F)
Dewpoint: -2.0°C (28°F) [RH = 93%]
Pressure (altimeter): 30.21 inches Hg (1023.0 mb)
Winds: from the SE (140 degrees) at 1 MPH (1 knots; 0.5 m/s)
Visibility: 4 miles ( 6 km)
Ceiling: at least 12,000 feet AGL
Clouds: sky clear below 12,000 feet AGL
Weather: no significant weather observed at this time

METAR text: LESA 170130Z AUTO 17001KT 7000 NCD 01/M01 Q1023
Conditions at: LESA (SALAMANCA (CIV/M, ES) observed 0130 UTC 17 February 2019
Temperature: 1.0°C (34°F)
Dewpoint: -1.0°C (30°F) [RH = 86%]
Pressure (altimeter): 30.21 inches Hg (1023.0 mb)
Winds: from the S (170 degrees) at 1 MPH (1 knots; 0.5 m/s)
Visibility: 4 miles ( 7 km)
Ceiling: at least 12,000 feet AGL
Clouds: sky clear below 12,000 feet AGL
Weather: no significant weather observed at this time

METAR text: LESA 170100Z AUTO 00000KT 7000 NCD 01/M00 Q1023
Conditions at: LESA (SALAMANCA (CIV/M, ES) observed 0100 UTC 17 February 2019
Temperature: 1.0°C (34°F)
Dewpoint: 0.0°C (32°F) [RH = 93%]
Pressure (altimeter): 30.21 inches Hg (1023.0 mb)
Winds: calm
Visibility: 4 miles ( 7 km)
Ceiling: at least 12,000 feet AGL
Clouds: sky clear below 12,000 feet AGL
Weather: no significant weather observed at this time

METAR text: LESA 170030Z AUTO 00000KT 7000 NCD M00/M01 Q1023
Conditions at: LESA (SALAMANCA (CIV/M, ES) observed 0030 UTC 17 February 2019
Temperature: 0.0°C (32°F)
Dewpoint: -1.0°C (30°F) [RH = 93%]
Pressure (altimeter): 30.21 inches Hg (1023.0 mb)
Winds: calm
Visibility: 4 miles ( 7 km)
Ceiling: at least 12,000 feet AGL
Clouds: sky clear below 12,000 feet AGL
Weather: no significant weather observed at this time

METAR text: LESA 170000Z AUTO 13003KT 7000 NCD 01/M01 Q1023
Conditions at: LESA (SALAMANCA (CIV/M, ES) observed 0000 UTC 17 February 2019
Temperature: 1.0°C (34°F)
Dewpoint: -1.0°C (30°F) [RH = 86%]
Pressure (altimeter): 30.21 inches Hg (1023.0 mb)
Winds: from the SE (130 degrees) at 3 MPH (3 knots; 1.5 m/s)
Visibility: 4 miles ( 7 km)
Ceiling: at least 12,000 feet AGL
Clouds: sky clear below 12,000 feet AGL
Weather: no significant weather observed at this time

METAR text: LESA 162330Z AUTO 00000KT 8000 NCD 02/M00 Q1023
Conditions at: LESA (SALAMANCA (CIV/M, ES) observed 2330 UTC 16 February 2019
Temperature: 2.0°C (36°F)
Dewpoint: 0.0°C (32°F) [RH = 87%]
Pressure (altimeter): 30.21 inches Hg (1023.0 mb)
Winds: calm
Visibility: 5 miles ( 8 km)
Ceiling: at least 12,000 feet AGL
Clouds: sky clear below 12,000 feet AGL
Weather: no significant weather observed at this time

METAR text: LESA 162300Z AUTO 04001KT 7000 NCD 01/M01 Q1023
Conditions at: LESA (SALAMANCA (CIV/M, ES) observed 2300 UTC 16 February 2019
Temperature: 1.0°C (34°F)
Dewpoint: -1.0°C (30°F) [RH = 86%]
Pressure (altimeter): 30.21 inches Hg (1023.0 mb)
Winds: from the NE (40 degrees) at 1 MPH (1 knots; 0.5 m/s)
Visibility: 4 miles ( 7 km)
Ceiling: at least 12,000 feet AGL
Clouds: sky clear below 12,000 feet AGL
Weather: no significant weather observed at this time

METAR text: LESA 162230Z AUTO 10001KT 8000 NCD 03/01 Q1023
Conditions at: LESA (SALAMANCA (CIV/M, ES) observed 2230 UTC 16 February 2019
Temperature: 3.0°C (37°F)
Dewpoint: 1.0°C (34°F) [RH = 87%]
Pressure (altimeter): 30.21 inches Hg (1023.0 mb)
Winds: from the E (100 degrees) at 1 MPH (1 knots; 0.5 m/s)
Visibility: 5 miles ( 8 km)
Ceiling: at least 12,000 feet AGL
Clouds: sky clear below 12,000 feet AGL
Weather: no significant weather observed at this time

METAR text: LESA 162200Z AUTO 00000KT 8000 NCD 04/01 Q1023
Conditions at: LESA (SALAMANCA (CIV/M, ES) observed 2200 UTC 16 February 2019
Temperature: 4.0°C (39°F)
Dewpoint: 1.0°C (34°F) [RH = 81%]
Pressure (altimeter): 30.21 inches Hg (1023.0 mb)
Winds: calm
Visibility: 5 miles ( 8 km)
Ceiling: at least 12,000 feet AGL
Clouds: sky clear below 12,000 feet AGL
Weather: no significant weather observed at this time

METAR text: LESA 162130Z AUTO 00000KT 8000 NCD 05/01 Q1023
Conditions at: LESA (SALAMANCA (CIV/M, ES) observed 2130 UTC 16 February 2019
Temperature: 5.0°C (41°F)
Dewpoint: 1.0°C (34°F) [RH = 75%]
Pressure (altimeter): 30.21 inches Hg (1023.0 mb)
Winds: calm
Visibility: 5 miles ( 8 km)
Ceiling: at least 12,000 feet AGL
Clouds: sky clear below 12,000 feet AGL
Weather: no significant weather observed at this time

Forecast for: LESA (SALAMANCA (CIV/M, ES)
Text: TAF LESA 180500Z 1806/1906 VRB05KT CAVOK TX15/1815Z TN00/1806Z
Forecast period: 0600 UTC 18 February 2019 to 0400 UTC 19 February 2019
Forecast type: FROM: standard forecast or significant change
Winds: variable direction winds at 6 MPH (5 knots; 2.6 m/s)
Visibility: 6 or more miles 10+ km)
Ceiling: unknown
Clouds: missing
Weather: no significant weather forecast for this period
Text: PROB30
Forecast period: 1200 to 1700 UTC 18 February 2019
Forecast type: TEMPORARY: The following changes expected for less than half the time period
Winds: from the SSW (200 degrees) at 9 MPH (8 knots; 4.1 m/s)
Visibility: missing
Ceiling: at least 12,000 feet AGL
Clouds: few clouds at 3500 feet AGL
Weather: no significant weather forecast for this period
Text: TEMPO 1812/1817 20008KT FEW035TCU
Forecast period: 0400 to 0600 UTC 19 February 2019
Forecast type: BECOMING: Conditions expected to become as follows by 0600 UTC 19 February 2019
Winds: variable direction winds at 6 MPH (5 knots; 2.6 m/s)
Visibility: 0.06 miles (0.10 km)
Ceiling: indefinite ceiling with vertical visibility of 100 feet AGL
Clouds: obscured sky
Weather: FZFG  (freezing fog)